• Join FlightAware (Why Join?)
  • Login
  • US Flag 
07:29AM EST


 

Airport Tracker/Info


-or-


 

Live Flight TrackerFlight Track Log ✈ EJA142 ✈ 24-Aug-2014 ✈ KVNY - KIAD

Flight Track Log - Related Links

Times and Time Zones

All times are in EDT time to prevent confusion due to time zone crossing. See the EJA142 flight status page for this flight to view local times or setup timezone preferences in your user account.

Time Position Orientation Groundspeed Altitude Reporting Facility
EDT Latitude Longitude Course Direction KTS MPH feet Rate Location/Type
03:05PM 34.1900 -118.4869 136° Southeast 168 193 1,800  Level Los Angeles Center
03:06PM 34.1556 -118.4469 136° Southeast 167 192 2,200 1,740 Climbing Los Angeles Center
03:07PM 34.1550 -118.3806 91° East 231 266 5,500 3,180 Climbing Los Angeles Center
03:08PM 34.2408 -118.4061 346° North 283 326 8,900 2,580 Climbing Los Angeles Center
03:09PM 34.3236 -118.4336 345° North 313 360 10,900 1,980 Climbing Los Angeles Center
03:10PM 34.4158 -118.3675 31° Northeast 386 444 13,100 2,700 Climbing Los Angeles Center
03:11PM 34.4944 -118.2819 42° Northeast 380 437 16,500 2,940 Climbing Los Angeles Center
03:12PM 34.5550 -118.1858 53° Northeast 362 417 19,200 2,640 Climbing Los Angeles Center
03:13PM 34.6239 -118.0756 53° Northeast 371 427 22,000 2,460 Climbing Los Angeles Center
03:14PM 34.6439 -117.9478 79° East 389 448 24,400 1,980 Climbing Los Angeles Center
03:15PM 34.6586 -117.8142 82° East 396 456 26,100 1,440 Climbing Los Angeles Center
03:16PM 34.6764 -117.6436 83° East 428 493 27,400 1,080 Climbing Los Angeles Center
03:17PM 34.6928 -117.4833 83° East 478 550 28,400 1,320 Climbing Los Angeles Center
03:18PM 34.7100 -117.3161 83° East 500 575 30,200 1,680 Climbing Los Angeles Center
03:19PM 34.7261 -117.1464 83° East 506 582 32,000 1,920 Climbing Los Angeles Center
03:20PM 34.7375 -116.9761 85° East 509 586 34,200 2,160 Climbing Los Angeles Center
03:21PM 34.7372 -116.7731 90° East 506 582 36,500 1,980 Climbing Los Angeles Center
03:22PM 34.7394 -116.6036 89° East 505 581 38,400 1,620 Climbing Los Angeles Center
03:23PM 34.7394 -116.4350 90° East 504 580 39,900 1,440 Climbing Los Angeles Center
03:24PM 34.7411 -116.2647 89° East 504 580 41,500 1,260 Climbing Los Angeles Center
03:25PM 34.7428 -116.0994 89° East 498 573 42,600 1,080 Climbing Los Angeles Center
03:26PM 34.7433 -115.8992 90° East 495 570 43,800 900 Climbing Los Angeles Center
03:27PM 34.7439 -115.7344 90° East 494 568 44,500 540 Climbing Los Angeles Center
03:28PM 34.7439 -115.5664 90° East 494 568 45,000 240 Climbing Los Angeles Center
03:30PM 34.7436 -115.3742 90° East 495 570 45,000  Level Los Angeles Center
03:31PM 34.7436 -115.1992 90° East 512 589 45,000  Level Los Angeles Center
03:32PM 34.7419 -115.0247 91° East 516 594 45,000  Level Los Angeles Center
03:33PM 34.7728 -114.8542 78° East 521 600 45,000  Level Los Angeles Center
03:34PM 34.8161 -114.6861 73° East 520 598 45,000  Level Los Angeles Center
03:35PM 34.8589 -114.5186 73° East 521 600 45,000  Level Los Angeles Center
03:36PM 34.9111 -114.3183 72° East 520 598 45,000  Level Los Angeles Center
03:37PM 34.9528 -114.1500 73° East 520 598 45,000  Level Los Angeles Center
03:38PM 35.0197 -113.8858 73° East 521 600 45,000  Level Albuquerque Center
03:39PM 35.0622 -113.7175 73° East 521 600 45,000  Level Albuquerque Center
03:40PM 35.1042 -113.5481 73° East 521 600 45,000  Level Albuquerque Center
03:42PM 35.1450 -113.3797 73° East 521 600 45,000  Level Albuquerque Center
03:43PM 35.1925 -113.1797 74° East 519 597 45,000  Level Albuquerque Center
03:44PM 35.2308 -113.0119 74° East 519 597 45,000  Level Albuquerque Center
03:45PM 35.2717 -112.8531 72° East 526 605 45,000  Level Albuquerque Center
03:47PM 35.3619 -112.4731 74° East 527 606 45,000  Level Albuquerque Center
03:48PM 35.4172 -112.2347 74° East 525 604 45,000  Level Los Angeles Center
03:49PM 35.4647 -112.0294 74° East 524 603 45,000  Level Los Angeles Center
03:50PM 35.5056 -111.8581 74° East 524 603 45,000  Level Los Angeles Center
03:51PM 35.5517 -111.6519 75° East 523 602 45,000  Level Albuquerque Center
03:52PM 35.5908 -111.4786 74° East 524 603 45,000  Level Albuquerque Center
03:54PM 35.6317 -111.2947 75° East 524 603 45,000  Level Albuquerque Center
03:55PM 35.6686 -111.1300 75° East 524 603 45,000  Level Albuquerque Center
03:56PM 35.7122 -110.9372 74° East 524 603 45,000  Level Albuquerque Center
03:57PM 35.7486 -110.7714 75° East 524 603 45,000  Level Albuquerque Center
03:58PM 35.7919 -110.5767 75° East 524 603 45,000  Level Albuquerque Center
03:59PM 35.8264 -110.4094 76° East 524 603 45,000  Level Albuquerque Center
04:00PM 35.8692 -110.2156 75° East 525 604 45,000  Level Albuquerque Center
04:01PM 35.9097 -110.0228 75° East 523 602 45,000  Level Denver Center
04:02PM 35.9450 -109.8553 75° East 525 604 45,000  Level Albuquerque Center
04:03PM 35.9811 -109.6878 75° East 525 604 45,000  Level Albuquerque Center
04:04PM 36.0206 -109.4939 76° East 524 603 45,000  Level Albuquerque Center
04:06PM 36.0942 -109.1394 75° East 523 602 45,000  Level Albuquerque Center
04:07PM 36.1319 -108.9689 75° East 520 598 45,000  Level Denver Center
04:08PM 36.1278 -108.9120 75° East  Level FlightAware Approximate
04:08PM 36.1764 -108.7589 75° East 550 633 45,000  Level Denver Center
04:10PM 36.2397 -108.4258 77° East 521 600 45,000  Level Albuquerque Center
04:11PM 36.2775 -108.2303 76° East 520 598 45,000  Level Denver Center
04:13PM 36.3467 -107.8697 77° East 519 597 45,000  Level Denver Center
04:15PM 36.4117 -107.5344 76° East 523 602 45,000  Level Albuquerque Center
04:16PM 36.4481 -107.3392 77° East 523 602 45,000  Level Denver Center
04:17PM 36.4858 -107.1436 76° East 522 601 45,000  Level Denver Center
04:18PM 36.5153 -106.9756 78° East 522 601 45,000  Level Denver Center
04:19PM 36.5517 -106.7792 77° East 522 601 45,000  Level Denver Center
04:20PM 36.5836 -106.6114 77° East 522 601 45,000  Level Denver Center
04:22PM 36.6131 -106.4464 77° East 522 601 45,000  Level Denver Center
04:23PM 36.6447 -106.2728 77° East 518 596 45,000  Level Denver Center
04:24PM 36.6814 -106.0606 78° East 520 598 45,000  Level Denver Center
04:25PM 36.7128 -105.8861 77° East 520 598 45,000  Level Denver Center
04:26PM 36.7403 -105.7208 78° East 518 596 45,000  Level Denver Center
04:27PM 36.7764 -105.5128 78° East 515 593 45,000  Level Denver Center
04:28PM 36.8072 -105.3403 77° East 512 589 45,000  Level Denver Center
04:29PM 36.8394 -105.1289 79° East 515 593 45,000  Level Albuquerque Center
04:30PM 36.8683 -104.9533 78° East 515 593 45,000  Level Albuquerque Center
04:31PM 36.8908 -104.8136 79° East 518 596 45,000  Level Denver Center
04:32PM 36.9197 -104.6408 78° East 512 589 45,000  Level Denver Center
04:33PM 36.9533 -104.4342 78° East 510 587 45,000  Level Denver Center
04:34PM 36.9811 -104.2594 79° East 510 587 45,000  Level Denver Center
04:35PM 37.0083 -104.0817 79° East 520 598 45,000  Level Denver Center
04:36PM 37.0353 -103.9086 79° East 514 592 45,000  Level Denver Center
04:37PM 37.0628 -103.7347 79° East 514 592 45,000  Level Denver Center
04:38PM 37.0950 -103.5264 79° East 514 592 45,000  Level Denver Center
04:39PM 37.1217 -103.3503 79° East 514 592 45,000  Level Denver Center
04:40PM 37.1478 -103.1739 79° East 515 593 45,000  Level Denver Center
04:41PM 37.1739 -102.9989 79° East 516 594 45,000  Level Denver Center
04:42PM 37.1972 -102.8444 79° East 515 593 45,000  Level Kansas City Center
04:43PM 37.2267 -102.6469 79° East 515 593 45,000  Level Kansas City Center
04:45PM 37.2617 -102.4000 80° East 516 594 45,000  Level Albuquerque Center
04:45PM 37.2778 -102.2794 80° East 516 594 45,000  Level Kansas City Center
04:46PM 37.3022 -102.1114 80° East 516 594 45,000  Level Kansas City Center
04:47PM 37.3297 -101.9136 80° East 516 594 45,000  Level Kansas City Center
04:48PM 37.3525 -101.7436 80° East 516 594 45,000  Level Kansas City Center
04:49PM 37.3794 -101.5464 80° East 516 594 45,000  Level Kansas City Center
04:50PM 37.4017 -101.3772 81° East 516 594 45,000  Level Kansas City Center
04:51PM 37.4275 -101.1811 81° East 515 593 45,000  Level Kansas City Center
04:52PM 37.4486 -101.0119 81° East 515 593 45,000  Level Kansas City Center
04:55PM 37.5217 -100.4531 81° East 515 593 45,000  Level Kansas City Center
04:57PM 37.5428 -100.2847 81° East 514 592 45,000  Level Kansas City Center
04:58PM 37.5667 -100.0906 81° East 508 585 45,000  Level Kansas City Center
04:59PM 37.5872 -99.9219 81° East 507 583 45,000  Level Kansas City Center
05:00PM 37.6114 -99.7250 81° East 508 585 45,000  Level Kansas City Center
05:02PM 37.6511 -99.3903 82° East 508 585 45,000  Level Kansas City Center
05:03PM 37.6758 -99.1794 82° East 508 585 45,000  Level Kansas City Center
05:04PM 37.6942 -99.0039 82° East 508 585 45,000  Level Kansas City Center
05:06PM 37.7336 -98.6492 82° East 509 586 45,000  Level Kansas City Center
05:07PM 37.7525 -98.4722 82° East 509 586 45,000  Level Kansas City Center
05:08PM 37.7750 -98.2572 82° East 514 592 45,000 -60 Level Kansas City Center
05:11PM 37.8286 -97.6994 82° East 523 602 44,900  Descending Kansas City Center
05:12PM 37.8486 -97.5225 82° East 516 594 45,000  Climbing Kansas City Center
05:13PM 37.8675 -97.3369 83° East 510 587 45,000  Level Kansas City Center
05:14PM 37.8847 -97.1600 83° East 509 586 45,000  Level Kansas City Center
05:17PM 37.9378 -96.5922 84° East 510 587 45,000  Level Kansas City Center
05:18PM 37.9542 -96.4164 83° East 507 583 45,000  Level Kansas City Center
05:19PM 37.9703 -96.2419 83° East 504 580 45,000  Level Kansas City Center
05:20PM 37.9856 -96.0519 84° East 504 580 45,000  Level Kansas City Center
05:21PM 38.0008 -95.8783 84° East 502 578 45,000  Level Kansas City Center
05:22PM 38.0161 -95.7019 84° East 503 579 45,000  Level Kansas City Center
05:23PM 38.0133 -95.7484 84° East  Level FlightAware Approximate
05:23PM 38.0303 -95.5283 84° East 501 577 45,000  Level Kansas City Center
05:25PM 38.0614 -95.1475 85° East 498 573 45,000  Level Kansas City Center
05:27PM 38.0747 -94.9714 84° East 500 575 45,000  Level Kansas City Center
05:28PM 38.0894 -94.7978 84° East 500 575 45,000  Level Kansas City Center
05:29PM 38.0994 -94.6283 86° East 490 564 45,000  Level Kansas City Center
05:30PM 38.1136 -94.4531 84° East 496 571 45,000  Level Kansas City Center
05:31PM 38.1272 -94.2433 85° East 500 575 45,000  Level Kansas City Center
05:32PM 38.1389 -94.0839 85° East 499 574 45,000  Level Kansas City Center
05:33PM 38.1506 -93.9086 85° East 499 574 45,000  Level Kansas City Center
05:35PM 38.1756 -93.5269 85° East 496 571 45,000  Level Kansas City Center
05:37PM 38.1928 -93.2364 86° East  Level FlightAware Approximate
05:37PM 38.1994 -93.1778 86° East 495 570 45,000  Level Kansas City Center
05:39PM 38.2217 -92.8264 85° East 495 570 45,000  Level Kansas City Center
05:40PM 38.2333 -92.6456 85° East 502 578 45,000  Level Kansas City Center
05:41PM 38.2458 -92.4325 86° East 501 577 45,000  Level Kansas City Center
05:42PM 38.2564 -92.2517 86° East 501 577 45,000  Level Kansas City Center
05:43PM 38.2642 -92.0731 87° East 501 577 45,000  Level Kansas City Center
05:44PM 38.2733 -91.8944 86° East 501 577 45,000  Level Kansas City Center
05:45PM 38.2814 -91.7178 87° East 501 577 45,000  Level Kansas City Center
05:46PM 38.2897 -91.5436 86° East 498 573 45,000  Level Kansas City Center
05:47PM 38.3019 -91.3719 85° East 494 568 45,000  Level Kansas City Center
05:49PM 38.3133 -90.9828 88° East 499 574 45,000  Level Kansas City Center
05:52PM 38.3342 -90.4586 87° East 499 574 45,000  Level Kansas City Center
05:53PM 38.3406 -90.2853 87° East 499 574 45,000  Level Kansas City Center
05:54PM 38.3486 -90.0761 87° East 499 574 45,000  Level Kansas City Center
05:57PM 38.3622 -89.7208 83° East 506 582 45,000  Level Kansas City Center
05:58PM 38.3566 -89.5862 87° East  Level FlightAware Approximate
05:58PM 38.3667 -89.5453 88° East 502 578 45,000  Level Kansas City Center
05:59PM 38.3772 -89.2372 87° East 501 577 45,000  Level Indianapolis Center
06:00PM 38.3819 -89.0597 88° East 501 577 45,000  Level Indianapolis Center
06:01PM 38.3867 -88.8817 88° East 501 577 45,000  Level Indianapolis Center
06:02PM 38.3908 -88.7022 88° East 502 578 45,000  Level Indianapolis Center
06:03PM 38.3956 -88.5214 88° East 504 580 45,000  Level Indianapolis Center
06:04PM 38.3994 -88.3075 89° East 505 581 45,000  Level Indianapolis Center
06:05PM 38.4031 -88.1292 88° East 505 581 45,000  Level Indianapolis Center
06:06PM 38.4064 -87.9494 89° East 505 581 45,000  Level Indianapolis Center
06:07PM 38.4100 -87.7672 88° East 507 583 45,000  Level Indianapolis Center
06:09PM 38.4122 -87.5875 89° East 508 585 45,000  Level Indianapolis Center
06:10PM 38.4156 -87.4089 89° East 504 580 45,000  Level Indianapolis Center
06:11PM 38.4186 -87.2281 89° East 504 580 45,000  Level Indianapolis Center
06:12PM 38.4181 -87.0406 90° East 504 580 45,000  Level Indianapolis Center
06:13PM 38.4206 -86.8514 89° East 510 587 45,000  Level Indianapolis Center
06:14PM 38.4214 -86.6333 90° East 512 589 45,000  Level Indianapolis Center
06:15PM 38.4217 -86.4547 90° East 507 583 45,000  Level Indianapolis Center
06:16PM 38.4233 -86.2750 89° East 506 582 45,000  Level Indianapolis Center
06:17PM 38.4228 -86.0983 90° East 503 579 45,000  Level Indianapolis Center
06:18PM 38.4225 -85.9186 90° East 502 578 45,000  Level Indianapolis Center
06:19PM 38.4239 -85.7378 89° East 505 581 45,000  Level Indianapolis Center
06:20PM 38.4228 -85.5583 90° East 505 581 45,000  Level Indianapolis Center
06:21PM 38.4211 -85.3425 90° East 505 581 45,000  Level Indianapolis Center
06:22PM 38.4211 -85.1800 90° East 505 581 45,000  Level Indianapolis Center
06:23PM 38.4197 -85.0003 91° East 505 581 45,000  Level Indianapolis Center
06:24PM 38.4178 -84.7906 91° East 505 581 45,000  Level Indianapolis Center
06:26PM 38.4136 -84.4378 82° East 499 574 45,000  Level Indianapolis Center
06:27PM 38.4117 -84.2611 91° East 498 573 45,000  Level Indianapolis Center
06:28PM 38.4086 -84.0881 91° East 495 570 45,000  Level Indianapolis Center
06:29PM 38.4044 -83.8850 91° East 494 568 45,000  Level Indianapolis Center
06:30PM 38.4028 -83.7094 91° East 494 568 45,000  Level Indianapolis Center
06:32PM 38.3953 -83.3614 92° East 493 567 45,000  Level Indianapolis Center
06:33PM 38.3922 -83.1869 91° East 493 567 45,000  Level Indianapolis Center
06:34PM 38.3867 -83.0144 92° East 491 565 45,000  Level Indianapolis Center
06:35PM 38.3825 -82.8097 91° East 491 565 45,000  Level Indianapolis Center
06:36PM 38.3781 -82.6350 92° East 491 565 45,000  Level Indianapolis Center
06:38PM 38.3692 -82.3408 93° East 495 570 45,000  Level Washington Center
06:39PM 38.3644 -82.1653 92° East 495 570 45,000 -60 Level Washington Center
06:40PM 38.3586 -81.9878 92° East 496 571 44,900 -1,080 Descending Washington Center
06:41PM 38.3506 -81.7769 93° East 497 572 42,800 -2,280 Descending Washington Center
06:42PM 38.3456 -81.5950 92° East 512 589 40,300 -2,460 Descending Washington Center
06:43PM 38.3386 -81.4128 93° East 515 593 37,800 -1,440 Descending Washington Center
06:45PM 38.3289 -81.1706 93° East 516 594 37,000 -360 Descending Indianapolis Center
06:46PM 38.3231 -80.9911 92° East 511 588 37,000  Level Indianapolis Center
06:47PM 38.3161 -80.7722 92° East 516 594 37,000  Level Indianapolis Center
06:48PM 38.3094 -80.5911 93° East 515 593 37,000 -720 Level Indianapolis Center
06:49PM 38.3061 -80.4669 92° East 515 593 35,800 -2,400 Descending Washington Center
06:50PM 38.3128 -80.2878 87° East 508 585 32,900 -3,300 Descending Washington Center
06:52PM 38.3267 -79.9186 87° East 522 601 25,700 -2,040 Descending Washington Center
06:54PM 38.4039 -79.5383 75° East 460 529 24,000 -600 Descending Indianapolis Center
06:55PM 38.4389 -79.4175 70° East 466 536 24,000 -1,380 Level Washington Center
06:58PM 38.5664 -78.9653 73° East 443 510 18,800 -1,740 Descending Washington Center
06:59PM 38.6072 -78.8242 70° East 430 495 16,900 -1,800 Descending Washington Center
07:00PM 38.6469 -78.6814 70° East 360 414 15,100 -1,560 Descending Washington Center
07:01PM 38.6756 -78.5767 71° East 319 367 13,700 -1,440 Descending Washington Center
07:02PM 38.7033 -78.4769 70° East 302 348 12,300 -1,260 Descending Washington Center
07:03PM 38.7317 -78.3792 70° East 297 342 11,100 -1,260 Descending Washington Center
07:04PM 38.7294 -78.2842 92° East 297 342 9,700 -1,440 Descending Washington Center
07:05PM 38.6878 -78.1981 122° Southeast 289 333 8,200 -1,680 Descending Washington Center
07:06PM 38.6242 -78.1100 133° Southeast 284 327 6,400 -1,560 Descending Washington Center
07:07PM 38.5722 -78.0369 132° Southeast 284 327 5,000 -540 Descending Washington Center
07:09PM 38.6167 -77.8833 21° North 260 299 5,000  Level Potomac TRACON
07:10PM 38.6500 -77.8000 63° Northeast 262 302 5,000 -300 Level Potomac TRACON
07:11PM 38.7000 -77.7167 52° Northeast 257 296 4,400 -540 Descending Potomac TRACON
07:12PM 38.7333 -77.6333 63° Northeast 261 300 4,000 -360 Descending Potomac TRACON
07:13PM 38.7667 -77.5667 57° Northeast 221 254 3,700 -540 Descending Potomac TRACON
07:14PM 38.8000 -77.5000 57° Northeast 211 243 3,000 -600 Descending Potomac TRACON
07:15PM 38.8500 -77.4833 15° North 190 219 2,500 -900 Descending Potomac TRACON
07:16PM 38.8833 -77.4667 21° North 160 184 1,300 8,280 Descending Potomac TRACON
07:18PM 38.9436 -77.4575 North 146 168 24,000 14,460 Climbing Washington Center
07:20PM 38.9474 -77.4599 334° Northwest  Level Estimated